Time;durP1;ratioP1;P1;durP2;ratioP2;P2;SDS_P1;SDS_P2;PMS_P1;PMS_P2;Temp;Humidity;BMP_temperature;BMP_pressure;BME280_temperature;BME280_humidity;BME280_pressure;Samples;Min_cycle;Max_cycle;Signal;HPM_P1;HPM_P2
2022/07/07 00:00:19;;;;;;;;;;;;;;;;;;2090561;28;19982;-89
2022/07/07 00:01:20;;;;;;;;;;;;;;;;;;2083156;28;20414;-88
2022/07/07 00:02:20;;;;;;;;;;;;;;;;;;2082744;28;20338;-86
2022/07/07 00:03:20;;;;;;;;;;;;;;;;;;2082979;28;20399;-87
2022/07/07 00:04:23;;;;;;;;;;;;;;;;;;2090719;28;19913;-86
2022/07/07 00:05:23;;;;;;;;;;;;;;;;;;2091006;28;19912;-86
2022/07/07 00:06:23;;;;;;;;;;;;;;;;;;2083073;28;19939;-85
2022/07/07 00:07:23;;;;;;;;;;;;;;;;;;2082980;28;19913;-87
2022/07/07 00:08:24;;;;;;;;;;;;;;;;;;2083069;28;19913;-86
2022/07/07 00:09:24;;;;;;;;;;;;;;;;;;2090793;28;20301;-86
2022/07/07 00:10:24;;;;;;;;;;;;;;;;;;2090917;28;19964;-85
2022/07/07 00:11:25;;;;;;;;;;;;;;;;;;2083132;28;19913;-85
2022/07/07 00:12:28;;;;;;;;;;;;;;;;;;2090838;28;20021;-86
2022/07/07 00:13:28;;;;;;;;;;;;;;;;;;2090470;28;19971;-86
2022/07/07 00:14:32;;;;;;;;;;;;;;;;;;2082714;28;20437;-85
2022/07/07 00:15:32;;;;;;;;;;;;;;;;;;2090665;28;20435;-84
2022/07/07 00:16:33;;;;;;;;;;;;;;;;;;2090596;28;19920;-86
2022/07/07 00:17:33;;;;;;;;;;;;;;;;;;2082052;28;20026;-86
2022/07/07 00:18:34;;;;;;;;;;;;;;;;;;2082563;28;19924;-86
2022/07/07 00:19:42;;;;;;;;;;;;;;;;;;2090987;28;20285;-83
2022/07/07 00:20:42;;;;;;;;;;;;;;;;;;2085179;28;20378;-84
2022/07/07 00:21:42;;;;;;;;;;;;;;;;;;2083335;28;19921;-87
2022/07/07 00:22:43;;;;;;;;;;;;;;;;;;2091802;28;20282;-88
2022/07/07 00:23:43;;;;;;;;;;;;;;;;;;2091066;28;19924;-88
2022/07/07 00:24:44;;;;;;;;;;;;;;;;;;2082277;28;19968;-85
2022/07/07 00:25:44;;;;;;;;;;;;;;;;;;2082227;28;19921;-87
2022/07/07 00:26:44;;;;;;;;;;;;;;;;;;2082587;28;20007;-88
2022/07/07 00:27:44;;;;;;;;;;;;;;;;;;2083015;28;19917;-85
2022/07/07 00:28:45;;;;;;;;;;;;;;;;;;2083086;28;19960;-85
2022/07/07 00:29:45;;;;;;;;;;;;;;;;;;2082868;28;20000;-85
2022/07/07 00:30:45;;;;;;;;;;;;;;;;;;2082772;28;20011;-85
2022/07/07 00:31:48;;;;;;;;;;;;;;;;;;2082871;28;19924;-85
2022/07/07 00:32:48;;;;;;;;;;;;;;;;;;2090665;28;19979;-85
2022/07/07 00:33:49;;;;;;;;;;;;;;;;;;2090583;28;20016;-85
2022/07/07 00:34:49;;;;;;;;;;;;;;;;;;2082961;28;19925;-84
2022/07/07 00:35:49;;;;;;;;;;;;;;;;;;2083003;28;19917;-88
2022/07/07 00:36:50;;;;;;;;;;;;;;;;;;2082788;28;19967;-85
2022/07/07 00:37:50;;;;;;;;;;;;;;;;;;2090713;28;19912;-86
2022/07/07 00:38:50;;;;;;;;;;;;;;;;;;2090671;28;20273;-85
2022/07/07 00:39:53;;;;;;;;;;;;;;;;;;2082793;28;19913;-85
2022/07/07 00:40:53;;;;;;;;;;;;;;;;;;2082643;28;19923;-86
2022/07/07 00:41:54;;;;;;;;;;;;;;;;;;2082956;28;20350;-85
2022/07/07 00:42:54;;;;;;;;;;;;;;;;;;2082548;28;19962;-84
2022/07/07 00:43:54;;;;;;;;;;;;;;;;;;2082812;28;19932;-85
2022/07/07 00:44:55;;;;;;;;;;;;;;;;;;2082793;28;19956;-85
2022/07/07 00:45:55;;;;;;;;;;;;;;;;;;2082779;28;19987;-85
2022/07/07 00:46:57;;;;;;;;;;;;;;;;;;2082534;28;19935;-86
2022/07/07 00:48:01;;;;;;;;;;;;;;;;;;2082644;28;19923;-85
2022/07/07 00:49:01;;;;;;;;;;;;;;;;;;2090523;28;20362;-90
2022/07/07 00:50:13;;;;;;;;;;;;;;;;;;2090421;28;19960;-86
2022/07/07 00:51:19;;;;;;;;;;;;;;;;;;2082462;28;19923;-86
2022/07/07 00:52:20;;;;;;;;;;;;;;;;;;2083008;28;19924;-84
2022/07/07 00:53:20;;;;;;;;;;;;;;;;;;2082994;28;20024;-91
2022/07/07 00:54:21;;;;;;;;;;;;;;;;;;2090813;28;19998;-87
2022/07/07 00:55:21;;;;;;;;;;;;;;;;;;2090517;28;19917;-90
2022/07/07 00:56:27;;;;;;;;;;;;;;;;;;2082467;28;19913;-87
2022/07/07 00:57:30;;;;;;;;;;;;;;;;;;2082974;28;19917;-87
2022/07/07 00:58:30;;;;;;;;;;;;;;;;;;2082896;28;19917;-86
2022/07/07 00:59:34;;;;;;;;;;;;;;;;;;2082812;28;19952;-87
2022/07/07 01:00:35;;;;;;;;;;;;;;;;;;2082618;28;19967;-86
2022/07/07 01:01:42;;;;;;;;;;;;;;;;;;2082562;28;20393;-86
2022/07/07 01:02:42;;;;;;;;;;;;;;;;;;2082542;28;19924;-89
2022/07/07 01:03:42;;;;;;;;;;;;;;;;;;2082775;28;19913;-85
2022/07/07 01:04:43;;;;;;;;;;;;;;;;;;2082356;28;20285;-87
2022/07/07 01:05:45;;;;;;;;;;;;;;;;;;2082650;28;19917;-86
2022/07/07 01:06:45;;;;;;;;;;;;;;;;;;2090062;28;20300;-85
2022/07/07 01:07:47;;;;;;;;;;;;;;;;;;2090614;28;19992;-84
2022/07/07 01:08:47;;;;;;;;;;;;;;;;;;2082823;28;20026;-85
2022/07/07 01:09:48;;;;;;;;;;;;;;;;;;2084679;28;19914;-84
2022/07/07 01:10:48;;;;;;;;;;;;;;;;;;2083587;28;20263;-89
2022/07/07 01:11:52;;;;;;;;;;;;;;;;;;2084377;28;19971;-87
2022/07/07 01:12:55;;;;;;;;;;;;;;;;;;2083408;28;19921;-91
2022/07/07 01:13:56;;;;;;;;;;;;;;;;;;2085037;28;19924;-90
2022/07/07 01:14:56;;;;;;;;;;;;;;;;;;2083018;28;20365;-91
2022/07/07 01:15:56;;;;;;;;;;;;;;;;;;2082681;28;19913;-86
2022/07/07 01:16:57;;;;;;;;;;;;;;;;;;2090274;28;20279;-89
2022/07/07 01:17:57;;;;;;;;;;;;;;;;;;2090569;28;20507;-89
2022/07/07 01:18:57;;;;;;;;;;;;;;;;;;2081380;28;19983;-89
2022/07/07 01:19:58;;;;;;;;;;;;;;;;;;2082065;28;20429;-87
2022/07/07 01:21:00;;;;;;;;;;;;;;;;;;2081916;28;20000;-89
2022/07/07 01:22:02;;;;;;;;;;;;;;;;;;2082628;28;20354;-89
2022/07/07 01:23:02;;;;;;;;;;;;;;;;;;2082790;28;19920;-88
2022/07/07 01:24:03;;;;;;;;;;;;;;;;;;2082507;28;20301;-89
2022/07/07 01:25:06;;;;;;;;;;;;;;;;;;2090141;28;19920;-91
2022/07/07 01:26:06;;;;;;;;;;;;;;;;;;2081773;28;20361;-92
2022/07/07 01:27:08;;;;;;;;;;;;;;;;;;2081904;28;19928;-90
2022/07/07 01:28:08;;;;;;;;;;;;;;;;;;2082380;28;19917;-88
2022/07/07 01:29:09;;;;;;;;;;;;;;;;;;2090282;28;20060;-88
2022/07/07 01:30:10;;;;;;;;;;;;;;;;;;2090109;28;19921;-91
2022/07/07 01:31:13;;;;;;;;;;;;;;;;;;2090013;28;20041;-88
2022/07/07 01:32:14;;;;;;;;;;;;;;;;;;2081842;28;20022;-87
2022/07/07 01:33:17;;;;;;;;;;;;;;;;;;2082075;28;20004;-90
2022/07/07 01:34:17;;;;;;;;;;;;;;;;;;2081856;28;19913;-93
2022/07/07 01:35:20;;;;;;;;;;;;;;;;;;2081894;28;19928;-85
2022/07/07 01:36:20;;;;;;;;;;;;;;;;;;2082252;28;19940;-90
2022/07/07 01:37:24;;;;;;;;;;;;;;;;;;2082383;28;19965;-88
2022/07/07 01:38:24;;;;;;;;;;;;;;;;;;2090153;28;20365;-86
2022/07/07 01:39:25;;;;;;;;;;;;;;;;;;2090006;28;20062;-84
2022/07/07 01:40:25;;;;;;;;;;;;;;;;;;2081766;28;20370;-88
2022/07/07 01:41:25;;;;;;;;;;;;;;;;;;2090243;28;19912;-89
2022/07/07 01:42:26;;;;;;;;;;;;;;;;;;2090235;28;19935;-91
2022/07/07 01:43:26;;;;;;;;;;;;;;;;;;2082735;28;19913;-87
2022/07/07 01:44:26;;;;;;;;;;;;;;;;;;2082530;28;19921;-89
2022/07/07 01:45:29;;;;;;;;;;;;;;;;;;2082663;28;20039;-85
2022/07/07 01:46:29;;;;;;;;;;;;;;;;;;2082589;28;19983;-86
2022/07/07 01:47:30;;;;;;;;;;;;;;;;;;2082467;28;20394;-85
2022/07/07 01:48:32;;;;;;;;;;;;;;;;;;2082336;28;20016;-86
2022/07/07 01:49:33;;;;;;;;;;;;;;;;;;2082252;28;19917;-88
2022/07/07 01:50:33;;;;;;;;;;;;;;;;;;2082283;28;19913;-86
2022/07/07 01:51:33;;;;;;;;;;;;;;;;;;2082478;28;19917;-85
2022/07/07 01:52:35;;;;;;;;;;;;;;;;;;2082181;28;19913;-85
2022/07/07 01:53:35;;;;;;;;;;;;;;;;;;2082658;28;19957;-84
2022/07/07 01:54:36;;;;;;;;;;;;;;;;;;2090024;28;19913;-86
2022/07/07 01:55:36;;;;;;;;;;;;;;;;;;2081755;28;20035;-85
2022/07/07 01:56:37;;;;;;;;;;;;;;;;;;2081887;28;19913;-87
2022/07/07 01:57:37;;;;;;;;;;;;;;;;;;2082360;28;20370;-87
2022/07/07 01:58:37;;;;;;;;;;;;;;;;;;2089838;28;19974;-84
2022/07/07 01:59:38;;;;;;;;;;;;;;;;;;2089995;28;19928;-83
2022/07/07 02:00:38;;;;;;;;;;;;;;;;;;2082620;28;19913;-87
2022/07/07 02:01:38;;;;;;;;;;;;;;;;;;2090044;28;19913;-87
2022/07/07 02:02:39;;;;;;;;;;;;;;;;;;2089997;28;20775;-94
2022/07/07 02:03:41;;;;;;;;;;;;;;;;;;2081949;28;19921;-84
2022/07/07 02:04:42;;;;;;;;;;;;;;;;;;2081655;28;19917;-85
2022/07/07 02:05:42;;;;;;;;;;;;;;;;;;2082125;28;20342;-86
2022/07/07 02:06:45;;;;;;;;;;;;;;;;;;2081929;28;19913;-90
2022/07/07 02:07:47;;;;;;;;;;;;;;;;;;2090030;28;20003;-86
2022/07/07 02:08:50;;;;;;;;;;;;;;;;;;2089930;28;19913;-85
2022/07/07 02:09:50;;;;;;;;;;;;;;;;;;2081932;28;19921;-90
2022/07/07 02:12:09;;;;;;;;;;;;;;;;;;2082097;28;19917;-84
2022/07/07 02:13:10;;;;;;;;;;;;;;;;;;2082212;28;19917;-87
2022/07/07 02:14:10;;;;;;;;;;;;;;;;;;2090127;28;20456;-88
2022/07/07 02:15:10;;;;;;;;;;;;;;;;;;2089999;28;19928;-87
2022/07/07 02:16:12;;;;;;;;;;;;;;;;;;2081360;28;20020;-84
2022/07/07 02:17:12;;;;;;;;;;;;;;;;;;2082471;28;19913;-86
2022/07/07 02:18:12;;;;;;;;;;;;;;;;;;2090105;28;19912;-90
2022/07/07 02:19:13;;;;;;;;;;;;;;;;;;2090516;28;19916;-94
2022/07/07 02:20:13;;;;;;;;;;;;;;;;;;2082251;28;19913;-84
2022/07/07 02:21:14;;;;;;;;;;;;;;;;;;2081916;28;20301;-88
2022/07/07 02:22:15;;;;;;;;;;;;;;;;;;2081977;28;20016;-87
2022/07/07 02:23:15;;;;;;;;;;;;;;;;;;2082032;28;19913;-86
2022/07/07 02:24:15;;;;;;;;;;;;;;;;;;2082332;28;20340;-92
2022/07/07 02:25:15;;;;;;;;;;;;;;;;;;2082216;28;20412;-84
2022/07/07 02:26:16;;;;;;;;;;;;;;;;;;2082077;28;19913;-90
2022/07/07 02:27:16;;;;;;;;;;;;;;;;;;2089807;28;20405;-85
2022/07/07 02:28:17;;;;;;;;;;;;;;;;;;2089913;28;19913;-85
2022/07/07 02:29:17;;;;;;;;;;;;;;;;;;2082462;28;20365;-85
2022/07/07 02:30:17;;;;;;;;;;;;;;;;;;2081726;28;20278;-84
2022/07/07 02:31:17;;;;;;;;;;;;;;;;;;2081699;28;19948;-85
2022/07/07 02:32:18;;;;;;;;;;;;;;;;;;2082890;28;19913;-85
2022/07/07 02:33:18;;;;;;;;;;;;;;;;;;2082190;28;19921;-85
2022/07/07 02:34:20;;;;;;;;;;;;;;;;;;2082658;28;19913;-86
2022/07/07 02:35:20;;;;;;;;;;;;;;;;;;2081971;28;19921;-87
2022/07/07 02:36:21;;;;;;;;;;;;;;;;;;2081760;28;19949;-85
2022/07/07 02:37:21;;;;;;;;;;;;;;;;;;2081334;28;19975;-87
2022/07/07 02:38:22;;;;;;;;;;;;;;;;;;2081402;28;19913;-85
2022/07/07 02:39:23;;;;;;;;;;;;;;;;;;2080898;28;20436;-86
2022/07/07 02:40:23;;;;;;;;;;;;;;;;;;2089228;28;19921;-85
2022/07/07 02:41:23;;;;;;;;;;;;;;;;;;2088837;28;19955;-86
2022/07/07 02:42:24;;;;;;;;;;;;;;;;;;2080798;28;19970;-85
2022/07/07 02:43:24;;;;;;;;;;;;;;;;;;2081289;28;19979;-84
2022/07/07 02:44:25;;;;;;;;;;;;;;;;;;2081478;28;19923;-85
2022/07/07 02:45:25;;;;;;;;;;;;;;;;;;2081297;28;20354;-85
2022/07/07 02:46:28;;;;;;;;;;;;;;;;;;2081569;28;20394;-85
2022/07/07 02:47:28;;;;;;;;;;;;;;;;;;2081869;28;19913;-84
2022/07/07 02:49:51;;;;;;;;;;;;;;;;;;2074040;28;19947;-84
2022/07/07 02:50:55;;;;;;;;;;;;;;;;;;2081425;28;19913;-84
2022/07/07 02:51:55;;;;;;;;;;;;;;;;;;2081322;28;19917;-85
2022/07/07 02:52:58;;;;;;;;;;;;;;;;;;2081359;28;19913;-84
2022/07/07 02:53:58;;;;;;;;;;;;;;;;;;2081435;28;19956;-85
2022/07/07 02:55:08;;;;;;;;;;;;;;;;;;2089204;28;20274;-86
2022/07/07 02:56:16;;;;;;;;;;;;;;;;;;2088148;28;19913;-85
2022/07/07 02:57:19;;;;;;;;;;;;;;;;;;2082990;28;19925;-85
2022/07/07 02:58:43;;;;;;;;;;;;;;;;;;2081101;28;20405;-84
2022/07/07 02:59:42;;;;;;;;;;;;;;;;;;2081562;28;20016;-87
2022/07/07 03:00:45;;;;;;;;;;;;;;;;;;2081958;28;19919;-83
2022/07/07 03:01:51;;;;;;;;;;;;;;;;;;2081863;28;20397;-90
2022/07/07 03:02:52;;;;;;;;;;;;;;;;;;2083843;28;20370;-85
2022/07/07 03:03:52;;;;;;;;;;;;;;;;;;2082141;28;19917;-88
2022/07/07 03:04:53;;;;;;;;;;;;;;;;;;2089546;28;19913;-85
2022/07/07 03:05:53;;;;;;;;;;;;;;;;;;2089654;28;19963;-90
2022/07/07 03:06:55;;;;;;;;;;;;;;;;;;2081371;28;19961;-85
2022/07/07 03:07:58;;;;;;;;;;;;;;;;;;2082744;28;19913;-88
2022/07/07 03:08:59;;;;;;;;;;;;;;;;;;2084264;28;19948;-89
2022/07/07 03:09:59;;;;;;;;;;;;;;;;;;2088586;28;19902;-88
2022/07/07 03:10:59;;;;;;;;;;;;;;;;;;2088829;28;19913;-90
2022/07/07 03:11:59;;;;;;;;;;;;;;;;;;2096695;28;19980;-90
2022/07/07 03:13:00;;;;;;;;;;;;;;;;;;2098393;28;19921;-86
2022/07/07 03:14:00;;;;;;;;;;;;;;;;;;2090480;28;19917;-87
2022/07/07 03:15:00;;;;;;;;;;;;;;;;;;2087335;28;19917;-92
2022/07/07 03:16:01;;;;;;;;;;;;;;;;;;2093654;28;19928;-84
2022/07/07 03:17:01;;;;;;;;;;;;;;;;;;2093850;28;19924;-85
2022/07/07 03:18:02;;;;;;;;;;;;;;;;;;2086023;28;20348;-89
2022/07/07 03:19:02;;;;;;;;;;;;;;;;;;2082375;28;20294;-90
2022/07/07 03:20:03;;;;;;;;;;;;;;;;;;2081884;28;19913;-84
2022/07/07 03:21:06;;;;;;;;;;;;;;;;;;2081589;28;19962;-88
2022/07/07 03:22:06;;;;;;;;;;;;;;;;;;2081462;28;19921;-93
2022/07/07 03:23:09;;;;;;;;;;;;;;;;;;2081746;28;20362;-87
2022/07/07 03:24:09;;;;;;;;;;;;;;;;;;2081878;28;19927;-84
2022/07/07 03:25:18;;;;;;;;;;;;;;;;;;2081778;28;20298;-86
2022/07/07 03:26:18;;;;;;;;;;;;;;;;;;2082492;28;19917;-83
2022/07/07 03:27:18;;;;;;;;;;;;;;;;;;2081490;28;19920;-94
2022/07/07 03:28:18;;;;;;;;;;;;;;;;;;2081607;28;20359;-85
2022/07/07 03:29:19;;;;;;;;;;;;;;;;;;2081252;28;19924;-86
2022/07/07 03:30:19;;;;;;;;;;;;;;;;;;2081890;28;19948;-85
2022/07/07 03:31:19;;;;;;;;;;;;;;;;;;2089144;28;20019;-91
2022/07/07 03:32:20;;;;;;;;;;;;;;;;;;2089616;28;19971;-86
2022/07/07 03:33:20;;;;;;;;;;;;;;;;;;2081324;28;20387;-87
2022/07/07 03:34:20;;;;;;;;;;;;;;;;;;2081013;28;19971;-91
2022/07/07 03:35:23;;;;;;;;;;;;;;;;;;2081053;28;19953;-85
2022/07/07 03:36:24;;;;;;;;;;;;;;;;;;2081150;28;19952;-86
2022/07/07 03:37:24;;;;;;;;;;;;;;;;;;2081206;28;19968;-88
2022/07/07 03:38:28;;;;;;;;;;;;;;;;;;2081079;28;19928;-89
2022/07/07 03:39:28;;;;;;;;;;;;;;;;;;2081441;28;19913;-90
2022/07/07 03:40:28;;;;;;;;;;;;;;;;;;2081544;28;20337;-91
2022/07/07 03:41:28;;;;;;;;;;;;;;;;;;2081473;28;19913;-86
2022/07/07 03:42:29;;;;;;;;;;;;;;;;;;2082639;28;20024;-92
2022/07/07 03:43:29;;;;;;;;;;;;;;;;;;2083046;28;19913;-90
2022/07/07 03:44:29;;;;;;;;;;;;;;;;;;2083348;28;19917;-89
2022/07/07 03:45:30;;;;;;;;;;;;;;;;;;2090838;28;20308;-87
2022/07/07 03:46:30;;;;;;;;;;;;;;;;;;2091029;28;20027;-90
2022/07/07 03:47:30;;;;;;;;;;;;;;;;;;2083059;28;19913;-91
2022/07/07 03:48:34;;;;;;;;;;;;;;;;;;2091100;28;20022;-87
2022/07/07 03:49:34;;;;;;;;;;;;;;;;;;2090677;28;19951;-85
2022/07/07 03:50:35;;;;;;;;;;;;;;;;;;2082940;28;19913;-88
2022/07/07 03:51:35;;;;;;;;;;;;;;;;;;2082935;28;19924;-89
2022/07/07 03:52:39;;;;;;;;;;;;;;;;;;2090743;28;19913;-85
2022/07/07 03:53:39;;;;;;;;;;;;;;;;;;2090291;28;19913;-85
2022/07/07 03:54:39;;;;;;;;;;;;;;;;;;2090793;28;20382;-87
2022/07/07 03:55:42;;;;;;;;;;;;;;;;;;2090483;28;19994;-93
2022/07/07 03:56:42;;;;;;;;;;;;;;;;;;2090744;28;19964;-91
2022/07/07 03:57:43;;;;;;;;;;;;;;;;;;2090690;28;19912;-90
2022/07/07 03:58:43;;;;;;;;;;;;;;;;;;2082925;28;19921;-88
2022/07/07 03:59:43;;;;;;;;;;;;;;;;;;2082720;28;19913;-88
2022/07/07 04:00:46;;;;;;;;;;;;;;;;;;2083228;28;19913;-92
2022/07/07 04:01:48;;;;;;;;;;;;;;;;;;2077882;28;19978;-90
2022/07/07 04:02:54;;;;;;;;;;;;;;;;;;2082309;28;20365;-89
2022/07/07 04:03:54;;;;;;;;;;;;;;;;;;2076449;28;20038;-88
2022/07/07 04:04:54;;;;;;;;;;;;;;;;;;2081550;28;20485;-87
2022/07/07 04:05:54;;;;;;;;;;;;;;;;;;2074982;28;19921;-89
2022/07/07 04:06:55;;;;;;;;;;;;;;;;;;2076979;28;19913;-85
2022/07/07 04:07:58;;;;;;;;;;;;;;;;;;2082194;28;19947;-89
2022/07/07 04:08:58;;;;;;;;;;;;;;;;;;2081163;28;20442;-83
2022/07/07 04:10:00;;;;;;;;;;;;;;;;;;2075419;28;19925;-84
2022/07/07 04:11:00;;;;;;;;;;;;;;;;;;2080953;28;19913;-87
2022/07/07 04:12:02;;;;;;;;;;;;;;;;;;2074612;28;19969;-89
2022/07/07 04:13:02;;;;;;;;;;;;;;;;;;2072117;28;19924;-84
2022/07/07 04:14:05;;;;;;;;;;;;;;;;;;2070548;28;19952;-90
2022/07/07 04:15:06;;;;;;;;;;;;;;;;;;2077896;28;19936;-87
2022/07/07 04:16:06;;;;;;;;;;;;;;;;;;2078616;28;19984;-85
2022/07/07 04:17:10;;;;;;;;;;;;;;;;;;2081916;28;20422;-88
2022/07/07 04:18:11;;;;;;;;;;;;;;;;;;2082076;28;20294;-87
2022/07/07 04:19:14;;;;;;;;;;;;;;;;;;2074263;28;19943;-96
2022/07/07 04:20:14;;;;;;;;;;;;;;;;;;2073548;28;20302;-87
2022/07/07 04:21:15;;;;;;;;;;;;;;;;;;2081508;28;19917;-85
2022/07/07 04:22:15;;;;;;;;;;;;;;;;;;2080512;28;19917;-87
2022/07/07 04:23:15;;;;;;;;;;;;;;;;;;2081268;28;19917;-85
2022/07/07 04:24:16;;;;;;;;;;;;;;;;;;2079194;28;20011;-90
2022/07/07 04:25:18;;;;;;;;;;;;;;;;;;2079438;28;20014;-91
2022/07/07 04:26:28;;;;;;;;;;;;;;;;;;2074714;28;19961;-95
2022/07/07 04:27:28;;;;;;;;;;;;;;;;;;2073355;28;19919;-82
2022/07/07 04:28:29;;;;;;;;;;;;;;;;;;2073309;28;19913;-96
2022/07/07 04:29:32;;;;;;;;;;;;;;;;;;2082180;28;19913;-86
2022/07/07 04:30:35;;;;;;;;;;;;;;;;;;2082159;28;20354;-87
2022/07/07 04:31:43;;;;;;;;;;;;;;;;;;2081839;28;19913;-91
2022/07/07 04:32:48;;;;;;;;;;;;;;;;;;2071446;28;19913;-84
2022/07/07 04:33:49;;;;;;;;;;;;;;;;;;2073416;28;20404;-86
2022/07/07 04:35:18;;;;;;;;;;;;;;;;;;2073787;28;19913;-89
2022/07/07 04:36:19;;;;;;;;;;;;;;;;;;2076620;28;19967;-83
2022/07/07 04:37:22;;;;;;;;;;;;;;;;;;2081796;28;19913;-84
2022/07/07 04:38:27;;;;;;;;;;;;;;;;;;2081702;28;20286;-92
2022/07/07 04:39:35;;;;;;;;;;;;;;;;;;2073953;28;20298;-90
2022/07/07 04:40:41;;;;;;;;;;;;;;;;;;2076009;28;19980;-91
2022/07/07 04:41:47;;;;;;;;;;;;;;;;;;2078499;28;19985;-90
2022/07/07 04:43:10;;;;;;;;;;;;;;;;;;2075990;28;19913;-82
2022/07/07 04:44:13;;;;;;;;;;;;;;;;;;2068690;28;20185;-87
2022/07/07 04:45:18;;;;;;;;;;;;;;;;;;2073352;28;19913;-91
2022/07/07 04:46:19;;;;;;;;;;;;;;;;;;2075872;28;19946;-88
2022/07/07 04:47:19;;;;;;;;;;;;;;;;;;2081528;28;20000;-86
2022/07/07 04:48:30;;;;;;;;;;;;;;;;;;2081191;28;20011;-85
2022/07/07 04:49:33;;;;;;;;;;;;;;;;;;2081571;28;19921;-92
2022/07/07 04:50:36;;;;;;;;;;;;;;;;;;2081194;28;19917;-85
2022/07/07 04:51:59;;;;;;;;;;;;;;;;;;2073235;28;19925;-81
2022/07/07 04:53:10;;;;;;;;;;;;;;;;;;;;;
2022/07/07 04:54:12;;;;;;;;;;;;;;;;;;2072976;28;20049;-86
2022/07/07 04:55:29;;;;;;;;;;;;;;;;;;2073530;28;20271;-85
2022/07/07 04:56:29;;;;;;;;;;;;;;;;;;2073180;28;19925;-84
2022/07/07 04:57:30;;;;;;;;;;;;;;;;;;2073180;28;20454;-88
2022/07/07 04:58:33;;;;;;;;;;;;;;;;;;2073934;28;19971;-82
2022/07/07 04:59:35;;;;;;;;;;;;;;;;;;2074278;28;19913;-84
2022/07/07 05:00:35;;;;;;;;;;;;;;;;;;2074467;28;19945;-83
2022/07/07 05:01:36;;;;;;;;;;;;;;;;;;2074196;28;19913;-85
2022/07/07 05:02:36;;;;;;;;;;;;;;;;;;2074127;28;19913;-87
2022/07/07 05:03:39;;;;;;;;;;;;;;;;;;2073457;28;19992;-85
2022/07/07 05:04:39;;;;;;;;;;;;;;;;;;2073589;28;19949;-83
2022/07/07 05:05:39;;;;;;;;;;;;;;;;;;2074191;28;19924;-82
2022/07/07 05:06:40;;;;;;;;;;;;;;;;;;2074362;28;19918;-88
2022/07/07 05:07:40;;;;;;;;;;;;;;;;;;2073919;28;19921;-86
2022/07/07 05:08:43;;;;;;;;;;;;;;;;;;2076194;28;20310;-88
2022/07/07 05:09:43;;;;;;;;;;;;;;;;;;2078233;28;19945;-85
2022/07/07 05:10:44;;;;;;;;;;;;;;;;;;2078075;28;20371;-88
2022/07/07 05:11:49;;;;;;;;;;;;;;;;;;2079853;28;20386;-93
2022/07/07 05:12:52;;;;;;;;;;;;;;;;;;2078649;28;19913;-91
2022/07/07 05:13:52;;;;;;;;;;;;;;;;;;2086440;28;19940;-84
2022/07/07 05:14:52;;;;;;;;;;;;;;;;;;2084804;28;19913;-88
2022/07/07 05:15:53;;;;;;;;;;;;;;;;;;2074406;28;20274;-89
2022/07/07 05:16:59;;;;;;;;;;;;;;;;;;2073638;28;20062;-86
2022/07/07 05:18:02;;;;;;;;;;;;;;;;;;2077452;28;19914;-87
2022/07/07 05:19:02;;;;;;;;;;;;;;;;;;2074609;28;19913;-86
2022/07/07 05:21:48;;;;;;;;;;;;;;;;;;;;;
2022/07/07 05:23:14;;;;;;;;;;;;;;;;;;2074547;28;19913;-90
2022/07/07 05:24:17;;;;;;;;;;;;;;;;;;2074223;28;20365;-89
2022/07/07 05:25:22;;;;;;;;;;;;;;;;;;2074061;28;19924;-87
2022/07/07 05:27:54;;;;;;;;;;;;;;;;;;;;;
2022/07/07 05:28:54;;;;;;;;;;;;;;;;;;2071769;28;20373;-85
2022/07/07 05:29:59;;;;;;;;;;;;;;;;;;2074585;28;19924;-88
2022/07/07 05:31:22;;;;;;;;;;;;;;;;;;2074242;28;20358;-89
2022/07/07 05:32:35;;;;;;;;;;;;;;;;;;2076995;28;19914;-88
2022/07/07 05:33:43;;;;;;;;;;;;;;;;;;2074526;28;20008;-88
2022/07/07 05:34:46;;;;;;;;;;;;;;;;;;2074271;28;19913;-86
2022/07/07 05:36:10;;;;;;;;;;;;;;;;;;2073869;28;19923;-87
2022/07/07 05:38:53;;;;;;;;;;;;;;;;;;2073261;28;19924;-88
2022/07/07 05:40:30;;;;;;;;;;;;;;;;;;2078231;28;19999;-89
2022/07/07 05:41:44;;;;;;;;;;;;;;;;;;2066063;28;19914;-91
2022/07/07 05:43:07;;;;;;;;;;;;;;;;;;2076575;28;19920;-88
2022/07/07 05:44:23;;;;;;;;;;;;;;;;;;2076916;28;20398;-95
2022/07/07 05:46:00;;;;;;;;;;;;;;;;;;2078123;28;19917;-89
2022/07/07 05:46:54;;;;;;;;;;;;;;;;;;2073208;28;19917;-88
2022/07/07 05:47:57;;;;;;;;;;;;;;;;;;2073831;28;19937;-85
2022/07/07 05:48:58;;;;;;;;;;;;;;;;;;2074019;28;19964;-90
2022/07/07 05:49:58;;;;;;;;;;;;;;;;;;2073922;28;19940;-86
2022/07/07 05:51:08;;;;;;;;;;;;;;;;;;2074324;28;19920;-88
2022/07/07 05:52:09;;;;;;;;;;;;;;;;;;2076964;28;20387;-86
2022/07/07 05:53:12;;;;;;;;;;;;;;;;;;2074247;28;19917;-81
2022/07/07 05:54:19;;;;;;;;;;;;;;;;;;2074188;28;19914;-84
2022/07/07 05:55:31;;;;;;;;;;;;;;;;;;2073708;28;19929;-88
2022/07/07 05:56:36;;;;;;;;;;;;;;;;;;2074950;28;19917;-82
2022/07/07 05:57:54;;;;;;;;;;;;;;;;;;2076895;28;19913;-91
2022/07/07 05:59:06;;;;;;;;;;;;;;;;;;2081766;28;19948;-87
2022/07/07 06:00:24;;;;;;;;;;;;;;;;;;2080876;28;20354;-84
2022/07/07 06:01:24;;;;;;;;;;;;;;;;;;2076828;28;19921;-86
2022/07/07 06:02:25;;;;;;;;;;;;;;;;;;2073795;28;19944;-88
2022/07/07 06:03:46;;;;;;;;;;;;;;;;;;2074020;28;19914;-88
2022/07/07 06:04:50;;;;;;;;;;;;;;;;;;2073503;28;20278;-87
2022/07/07 06:05:53;;;;;;;;;;;;;;;;;;2081494;28;19921;-91
2022/07/07 06:06:56;;;;;;;;;;;;;;;;;;2081439;28;19923;-86
2022/07/07 06:07:59;;;;;;;;;;;;;;;;;;2073671;28;20181;-86
2022/07/07 06:09:02;;;;;;;;;;;;;;;;;;2081531;28;19917;-86
2022/07/07 06:10:03;;;;;;;;;;;;;;;;;;2081516;28;19913;-85
2022/07/07 06:11:06;;;;;;;;;;;;;;;;;;2073806;28;19975;-88
2022/07/07 06:12:10;;;;;;;;;;;;;;;;;;2074093;28;19975;-87
2022/07/07 06:13:13;;;;;;;;;;;;;;;;;;2073817;28;19927;-89
2022/07/07 06:14:15;;;;;;;;;;;;;;;;;;2073787;28;19913;-91
2022/07/07 06:15:20;;;;;;;;;;;;;;;;;;2074042;28;20356;-93
2022/07/07 06:16:38;;;;;;;;;;;;;;;;;;2073960;28;19917;-88
2022/07/07 06:17:39;;;;;;;;;;;;;;;;;;2073663;28;19928;-86
2022/07/07 06:18:40;;;;;;;;;;;;;;;;;;2073532;28;20117;-84
2022/07/07 06:19:40;;;;;;;;;;;;;;;;;;2073386;28;19924;-85
2022/07/07 06:20:43;;;;;;;;;;;;;;;;;;2073348;28;19918;-87
2022/07/07 06:21:43;;;;;;;;;;;;;;;;;;2073542;28;19964;-88
2022/07/07 06:22:44;;;;;;;;;;;;;;;;;;2081557;28;19917;-87
2022/07/07 06:23:44;;;;;;;;;;;;;;;;;;2081876;28;19913;-86
2022/07/07 06:24:46;;;;;;;;;;;;;;;;;;2073336;28;19949;-84
2022/07/07 06:25:47;;;;;;;;;;;;;;;;;;2073922;28;20347;-86
2022/07/07 06:26:47;;;;;;;;;;;;;;;;;;2081705;28;19956;-86
2022/07/07 06:27:48;;;;;;;;;;;;;;;;;;2081737;28;20199;-91
2022/07/07 06:28:48;;;;;;;;;;;;;;;;;;2073826;28;19917;-84
2022/07/07 06:29:49;;;;;;;;;;;;;;;;;;2073747;28;19913;-84
2022/07/07 06:30:49;;;;;;;;;;;;;;;;;;2073774;28;20389;-85
2022/07/07 06:31:49;;;;;;;;;;;;;;;;;;2073926;28;20003;-87
2022/07/07 06:32:50;;;;;;;;;;;;;;;;;;2073879;28;19971;-87
2022/07/07 06:35:14;;;;;;;;;;;;;;;;;;2073204;28;19987;-92
2022/07/07 06:36:15;;;;;;;;;;;;;;;;;;2073270;28;20041;-89
2022/07/07 06:37:17;;;;;;;;;;;;;;;;;;2073225;28;19920;-93
2022/07/07 06:38:18;;;;;;;;;;;;;;;;;;2073570;28;19963;-90
2022/07/07 06:39:19;;;;;;;;;;;;;;;;;;2074138;28;19971;-86
2022/07/07 06:40:20;;;;;;;;;;;;;;;;;;2073879;28;19924;-84
2022/07/07 06:41:23;;;;;;;;;;;;;;;;;;2073851;28;20097;-84
2022/07/07 06:42:26;;;;;;;;;;;;;;;;;;2073759;28;19913;-87
2022/07/07 06:43:26;;;;;;;;;;;;;;;;;;2073170;28;19940;-92
2022/07/07 06:44:33;;;;;;;;;;;;;;;;;;2072992;28;19914;-94
2022/07/07 06:45:33;;;;;;;;;;;;;;;;;;2073446;28;19917;-85
2022/07/07 06:46:33;;;;;;;;;;;;;;;;;;2073208;28;19914;-91
2022/07/07 06:47:41;;;;;;;;;;;;;;;;;;2073610;28;19917;-87
2022/07/07 06:48:51;;;;;;;;;;;;;;;;;;;;;
2022/07/07 06:49:52;;;;;;;;;;;;;;;;;;2073882;28;20012;-84
2022/07/07 06:50:59;;;;;;;;;;;;;;;;;;2073822;28;19953;-93
2022/07/07 06:52:00;;;;;;;;;;;;;;;;;;2078494;28;19944;-91
2022/07/07 06:53:05;;;;;;;;;;;;;;;;;;2076472;28;19914;-89
2022/07/07 06:54:05;;;;;;;;;;;;;;;;;;2076295;28;19913;-83
2022/07/07 06:55:05;;;;;;;;;;;;;;;;;;2073533;28;19988;-90
2022/07/07 06:56:11;;;;;;;;;;;;;;;;;;2073213;28;19914;-95
2022/07/07 06:57:15;;;;;;;;;;;;;;;;;;2073492;28;20338;-84
2022/07/07 06:58:17;;;;;;;;;;;;;;;;;;2073253;28;19924;-88
2022/07/07 06:59:38;;;;;;;;;;;;;;;;;;2081914;28;19913;-91
2022/07/07 07:00:43;;;;;;;;;;;;;;;;;;2079985;28;19913;-91
2022/07/07 07:01:52;;;;;;;;;;;;;;;;;;2076841;28;19921;-87
2022/07/07 07:03:03;;;;;;;;;;;;;;;;;;2076155;28;19913;-87
2022/07/07 07:04:07;;;;;;;;;;;;;;;;;;2081828;28;19940;-85
2022/07/07 07:05:07;;;;;;;;;;;;;;;;;;2078558;28;19917;-90
2022/07/07 07:06:07;;;;;;;;;;;;;;;;;;2080576;28;19914;-89
2022/07/07 07:07:08;;;;;;;;;;;;;;;;;;2082332;28;19902;-86
2022/07/07 07:08:08;;;;;;;;;;;;;;;;;;2081891;28;19916;-86
2022/07/07 07:09:11;;;;;;;;;;;;;;;;;;2078639;28;19924;-86
2022/07/07 07:10:12;;;;;;;;;;;;;;;;;;2087753;28;19968;-85
2022/07/07 07:11:12;;;;;;;;;;;;;;;;;;2077574;28;19914;-87
2022/07/07 07:12:17;;;;;;;;;;;;;;;;;;2065768;28;19962;-89
2022/07/07 07:13:27;;;;;;;;;;;;;;;;;;2073329;28;19913;-88
2022/07/07 07:14:30;;;;;;;;;;;;;;;;;;2073138;28;19913;-87
2022/07/07 07:15:40;;;;;;;;;;;;;;;;;;2073061;28;20000;-91
2022/07/07 07:16:43;;;;;;;;;;;;;;;;;;2074175;28;20346;-89
2022/07/07 07:17:52;;;;;;;;;;;;;;;;;;2074649;28;20370;-82